createdAt,value
2023-05-22T00:00:01.174Z,79.2
2023-05-22T00:05:01.363Z,79.0
2023-05-22T00:10:01.175Z,77.4
2023-05-22T00:15:01.277Z,76.4
2023-05-22T00:20:01.174Z,76.9
2023-05-22T00:25:01.360Z,81.4
2023-05-22T00:30:01.266Z,79.2
2023-05-22T00:35:01.378Z,76.5
2023-05-22T00:40:01.190Z,75.0
2023-05-22T00:45:01.293Z,72.9
2023-05-22T00:50:01.229Z,65.5
2023-05-22T00:55:01.251Z,63.6
2023-05-22T01:00:01.170Z,64.2
2023-05-22T01:05:01.226Z,64.0
2023-05-22T01:10:01.099Z,66.0
2023-05-22T01:15:01.322Z,69.2
2023-05-22T01:20:01.251Z,71.6
2023-05-22T01:25:01.253Z,72.4
2023-05-22T01:30:01.159Z,73.2
2023-05-22T01:50:01.042Z,60.2
2023-05-22T01:55:01.031Z,60.3
2023-05-22T02:00:00.942Z,60.0
2023-05-22T02:05:01.101Z,59.8
2023-05-22T02:10:00.989Z,60.5
2023-05-22T02:15:01.031Z,61.7
2023-05-22T02:20:00.980Z,66.6
2023-05-22T02:25:01.083Z,68.5
2023-05-22T02:30:01.080Z,69.9
2023-05-22T02:35:01.095Z,70.4
2023-05-22T02:45:01.151Z,68.8
2023-05-22T02:50:00.965Z,69.3
2023-05-22T02:55:01.026Z,70.0
2023-05-22T03:00:00.946Z,71.2
2023-05-22T03:05:01.079Z,76.5
2023-05-22T03:10:01.036Z,76.2
2023-05-22T03:15:01.090Z,75.5
2023-05-22T03:20:00.952Z,74.9
2023-05-22T03:25:01.097Z,72.7
2023-05-22T03:30:00.983Z,67.2
2023-05-22T03:35:02.272Z,66.6
2023-05-22T03:40:01.298Z,66.8
2023-05-22T03:45:01.093Z,66.6
2023-05-22T03:50:00.981Z,70.0
2023-05-22T03:55:01.010Z,70.2
2023-05-22T04:00:00.904Z,70.7
2023-05-22T04:05:01.390Z,72.2
2023-05-22T04:10:01.008Z,73.6
2023-05-22T04:15:01.087Z,71.8
2023-05-22T04:20:00.982Z,71.5
2023-05-22T04:25:01.032Z,71.2
2023-05-22T04:30:00.990Z,71.0
2023-05-22T04:35:01.087Z,70.8
2023-05-22T04:40:00.978Z,70.9
2023-05-22T04:45:01.096Z,70.8
2023-05-22T04:50:01.183Z,70.4
2023-05-22T04:55:03.859Z,68.5
2023-05-22T05:00:05.982Z,70.2
2023-05-22T05:05:01.119Z,70.4
2023-05-22T05:10:01.019Z,69.9
2023-05-22T05:15:01.108Z,70.0
2023-05-22T05:20:01.038Z,71.7
2023-05-22T05:25:01.098Z,70.2
2023-05-22T05:30:01.065Z,72.2
2023-05-22T05:35:01.030Z,74.2
2023-05-22T05:40:00.973Z,76.8
2023-05-22T05:45:01.056Z,82.4
2023-05-22T05:50:01.091Z,84.2
2023-05-22T05:55:01.094Z,84.9
2023-05-22T06:00:01.056Z,86.9
2023-05-22T06:05:01.394Z,87.2
2023-05-22T06:10:01.114Z,82.9
2023-05-22T06:15:01.040Z,82.2
2023-05-22T06:20:00.983Z,82.3
2023-05-22T06:25:01.107Z,81.6
2023-05-22T06:30:03.705Z,81.9
2023-05-22T06:35:01.096Z,80.0
2023-05-22T06:40:00.975Z,79.6
2023-05-22T06:45:01.024Z,78.8
2023-05-22T06:50:01.151Z,78.9
2023-05-22T06:55:01.045Z,79.4
2023-05-22T07:00:00.980Z,82.4
2023-05-22T07:05:01.105Z,83.6
2023-05-22T07:10:01.032Z,84.6
2023-05-22T07:15:01.104Z,80.3
2023-05-22T07:20:00.934Z,76.5
2023-05-22T07:25:06.293Z,71.6
2023-05-22T07:30:01.001Z,67.8
2023-05-22T07:35:01.112Z,64.4
2023-05-22T07:40:00.993Z,69.4
2023-05-22T07:45:01.386Z,69.8
2023-05-22T07:50:01.116Z,70.4
2023-05-22T07:55:01.117Z,71.4
2023-05-22T08:00:01.078Z,71.9
2023-05-22T08:05:06.369Z,66.6
2023-05-22T08:10:01.003Z,64.5
2023-05-22T08:15:03.161Z,63.4
2023-05-22T08:20:01.236Z,61.3
2023-05-22T08:25:01.263Z,66.2
2023-05-22T08:30:00.992Z,67.3
2023-05-22T08:35:01.107Z,68.0
2023-05-22T08:40:00.985Z,68.7
2023-05-22T08:45:01.376Z,70.2
2023-05-22T08:50:00.973Z,63.5
2023-05-22T08:55:01.095Z,62.4
2023-05-22T09:00:00.981Z,62.2
2023-05-22T09:10:01.050Z,66.9
2023-05-22T09:15:01.010Z,67.6
2023-05-22T09:20:01.026Z,68.5
2023-05-22T09:30:01.174Z,68.6
2023-05-22T09:35:01.162Z,63.0
2023-05-22T09:40:01.230Z,63.3
2023-05-22T09:45:01.118Z,64.7
2023-05-22T09:50:01.097Z,65.8
2023-05-22T09:55:01.138Z,66.2
2023-05-22T10:00:01.005Z,66.6
2023-05-22T10:05:06.128Z,67.4
2023-05-22T10:10:00.921Z,67.2
2023-05-22T10:15:01.054Z,66.8
2023-05-22T10:20:01.008Z,66.8
2023-05-22T10:25:01.301Z,68.3
2023-05-22T10:30:01.010Z,67.2
2023-05-22T10:35:01.177Z,67.3
2023-05-22T10:45:01.413Z,67.2
2023-05-22T10:50:01.028Z,66.1
2023-05-22T10:55:01.071Z,66.6
2023-05-22T11:00:06.233Z,65.1
2023-05-22T11:05:01.779Z,69.4
2023-05-22T11:20:02.275Z,64.2
2023-05-22T11:25:02.043Z,64.3
2023-05-22T11:30:01.870Z,64.9
2023-05-22T11:35:04.642Z,64.9
2023-05-22T11:40:01.495Z,65.3
2023-05-22T11:45:01.745Z,65.2
2023-05-22T11:50:01.436Z,65.8
2023-05-22T11:55:01.724Z,66.0
2023-05-22T12:00:01.603Z,67.4
2023-05-22T12:05:01.560Z,68.4
2023-05-22T12:10:01.821Z,69.9
2023-05-22T12:15:01.633Z,70.9
2023-05-22T12:20:01.451Z,71.0
2023-05-22T12:25:01.574Z,70.7
2023-05-22T12:30:02.587Z,70.0
2023-05-22T12:35:01.625Z,69.7
2023-05-22T12:40:01.449Z,68.8
2023-05-22T12:45:01.620Z,69.4
2023-05-22T12:50:01.458Z,69.3
2023-05-22T12:55:01.620Z,70.0
2023-05-22T13:00:01.595Z,70.2
2023-05-22T13:05:01.868Z,70.8
2023-05-22T13:10:02.460Z,70.6
2023-05-22T13:15:01.685Z,70.4
2023-05-22T13:20:01.519Z,69.3
2023-05-22T13:25:01.626Z,69.0
2023-05-22T13:30:01.448Z,68.3
2023-05-22T13:35:01.611Z,67.0
2023-05-22T13:40:01.409Z,66.4
2023-05-22T13:45:01.712Z,66.6
2023-05-22T13:50:01.389Z,65.4
2023-05-22T13:55:06.667Z,64.4
2023-05-22T14:00:01.397Z,64.4
2023-05-22T14:05:01.655Z,64.2
2023-05-22T14:10:02.059Z,63.1
2023-05-22T14:15:01.637Z,62.7
2023-05-22T14:20:01.405Z,62.5
2023-05-22T14:25:01.642Z,62.2
2023-05-22T14:30:01.478Z,64.9
2023-05-22T14:35:02.642Z,64.6
2023-05-22T14:40:01.376Z,64.8
2023-05-22T14:45:01.568Z,65.4
2023-05-22T14:55:01.557Z,62.5
2023-05-22T15:00:01.372Z,63.9
2023-05-22T15:05:01.789Z,64.9
2023-05-22T15:15:01.592Z,65.5
2023-05-22T15:20:01.364Z,65.6
2023-05-22T15:25:01.557Z,65.8
2023-05-22T15:30:01.396Z,64.7
2023-05-22T15:35:01.588Z,64.4
2023-05-22T15:40:01.492Z,64.1
2023-05-22T15:45:01.551Z,64.4
2023-05-22T15:50:01.347Z,65.1
2023-05-22T16:00:01.608Z,65.8
2023-05-22T16:05:01.494Z,66.1
2023-05-22T16:15:05.261Z,66.8
2023-05-22T16:20:01.780Z,67.2
2023-05-22T16:30:01.767Z,70.6
2023-05-22T16:35:01.450Z,69.6
2023-05-22T16:40:01.599Z,68.6
2023-05-22T16:45:01.622Z,68.4
2023-05-22T16:50:01.596Z,66.6
2023-05-22T16:55:01.489Z,61.7
2023-05-22T17:00:01.734Z,60.5
2023-05-22T17:05:02.486Z,59.3
2023-05-22T17:10:01.454Z,61.6
2023-05-22T17:15:01.396Z,61.8
2023-05-22T17:20:01.635Z,62.2
2023-05-22T17:25:01.507Z,64.1
2023-05-22T17:30:01.502Z,65.4
2023-05-22T17:35:01.652Z,62.9
2023-05-22T17:40:01.533Z,63.0
2023-05-22T17:45:01.411Z,62.6
2023-05-22T17:50:01.656Z,61.5
2023-05-22T18:00:01.622Z,61.2
2023-05-22T18:05:01.499Z,61.3
2023-05-22T18:30:01.638Z,54.0
2023-05-22T18:35:01.039Z,55.4
2023-05-22T18:40:00.984Z,55.6
2023-05-22T18:45:01.042Z,55.5
2023-05-22T18:50:01.260Z,55.6
2023-05-22T18:55:01.045Z,56.0
2023-05-22T19:00:00.980Z,55.9
2023-05-22T19:05:01.380Z,58.7
2023-05-22T19:10:01.179Z,60.8
2023-05-22T19:15:01.065Z,62.8
2023-05-22T19:20:01.034Z,63.4
2023-05-22T19:25:01.043Z,65.4
2023-05-22T19:30:01.175Z,64.4
2023-05-22T19:35:01.054Z,62.4
2023-05-22T19:40:01.132Z,60.0
2023-05-22T19:45:01.280Z,58.8
2023-05-22T19:50:01.279Z,63.4
2023-05-22T19:55:01.184Z,61.8
2023-05-22T20:00:01.042Z,62.0
2023-05-22T20:05:06.405Z,63.3
2023-05-22T20:10:01.138Z,65.0
2023-05-22T20:15:01.268Z,60.2
2023-05-22T20:20:01.361Z,60.7
2023-05-22T20:25:01.313Z,61.2
2023-05-22T20:30:01.005Z,60.9
2023-05-22T20:35:01.061Z,60.7
2023-05-22T20:40:00.926Z,58.8
2023-05-22T20:45:02.399Z,58.6
2023-05-22T20:50:05.951Z,59.0
2023-05-22T20:55:01.097Z,58.8
2023-05-22T21:00:01.421Z,58.1
2023-05-22T21:05:01.376Z,58.6
2023-05-22T21:10:01.024Z,58.6
2023-05-22T21:15:01.146Z,57.6
2023-05-22T21:20:01.332Z,57.6
2023-05-22T21:25:01.378Z,58.0
2023-05-22T21:30:01.024Z,57.4
2023-05-22T21:35:07.096Z,56.7
2023-05-22T21:40:01.035Z,56.5
2023-05-22T21:45:01.354Z,57.1
2023-05-22T21:50:02.838Z,56.5
2023-05-22T21:55:01.082Z,56.9
2023-05-22T22:00:01.050Z,57.2
2023-05-22T22:05:01.412Z,57.6
2023-05-22T22:10:01.012Z,57.2
2023-05-22T22:15:01.112Z,57.8
2023-05-22T22:20:06.099Z,58.4
2023-05-22T22:25:02.257Z,59.5
2023-05-22T22:30:01.309Z,63.1
2023-05-22T22:40:01.222Z,64.0
2023-05-22T22:45:01.452Z,64.1
2023-05-22T22:50:01.038Z,64.9
2023-05-22T22:55:02.251Z,62.0
2023-05-22T23:00:01.145Z,61.9
2023-05-22T23:10:01.300Z,62.6
2023-05-22T23:15:01.275Z,64.2
2023-05-22T23:20:03.078Z,65.2
2023-05-22T23:25:01.101Z,66.5
2023-05-22T23:30:01.229Z,67.0
2023-05-22T23:35:01.172Z,67.6
2023-05-22T23:40:01.206Z,65.6
2023-05-22T23:45:01.110Z,65.0
2023-05-22T23:50:01.175Z,64.0
2023-05-22T23:55:01.177Z,64.0
